sensor_id;sensor_type;location;lat;lon;timestamp;pressure;altitude;pressure_sealevel;temperature;humidity
64253;BME280;50592;52.958;-7.470;2023-12-22T00:02:13;100498.84;;;10.64;100.00
64253;BME280;50592;52.958;-7.470;2023-12-22T00:05:08;100489.50;;;10.70;100.00
64253;BME280;50592;52.958;-7.470;2023-12-22T00:08:11;100494.25;;;10.66;100.00
64253;BME280;50592;52.958;-7.470;2023-12-22T00:11:13;100504.41;;;10.61;100.00
64253;BME280;50592;52.958;-7.470;2023-12-22T00:14:02;100503.56;;;10.61;100.00
64253;BME280;50592;52.958;-7.470;2023-12-22T00:16:38;100512.75;;;10.57;100.00
64253;BME280;50592;52.958;-7.470;2023-12-22T00:23:20;100494.97;;;10.49;100.00
64253;BME280;50592;52.958;-7.470;2023-12-22T00:27:18;100512.63;;;10.48;100.00
64253;BME280;50592;52.958;-7.470;2023-12-22T00:34:04;100507.63;;;10.35;100.00
64253;BME280;50592;52.958;-7.470;2023-12-22T00:37:19;100494.69;;;10.32;100.00
64253;BME280;50592;52.958;-7.470;2023-12-22T00:44:15;100486.06;;;10.40;100.00
64253;BME280;50592;52.958;-7.470;2023-12-22T00:47:28;100484.25;;;10.40;100.00
64253;BME280;50592;52.958;-7.470;2023-12-22T00:51:08;100475.09;;;10.45;100.00
64253;BME280;50592;52.958;-7.470;2023-12-22T01:08:23;100473.69;;;10.50;100.00
64253;BME280;50592;52.958;-7.470;2023-12-22T01:10:48;100474.41;;;10.52;100.00
64253;BME280;50592;52.958;-7.470;2023-12-22T01:13:14;100469.09;;;10.52;100.00
64253;BME280;50592;52.958;-7.470;2023-12-22T01:15:40;100455.91;;;10.52;100.00
64253;BME280;50592;52.958;-7.470;2023-12-22T01:18:06;100468.41;;;10.50;100.00
64253;BME280;50592;52.958;-7.470;2023-12-22T01:20:31;100472.72;;;10.41;100.00
64253;BME280;50592;52.958;-7.470;2023-12-22T01:22:57;100481.19;;;10.45;100.00
64253;BME280;50592;52.958;-7.470;2023-12-22T01:25:23;100487.59;;;10.42;100.00
64253;BME280;50592;52.958;-7.470;2023-12-22T01:27:49;100479.53;;;10.44;100.00
64253;BME280;50592;52.958;-7.470;2023-12-22T01:30:18;100481.19;;;10.45;100.00
64253;BME280;50592;52.958;-7.470;2023-12-22T01:32:44;100489.53;;;10.40;100.00
64253;BME280;50592;52.958;-7.470;2023-12-22T01:35:10;100494.81;;;10.40;100.00
64253;BME280;50592;52.958;-7.470;2023-12-22T01:37:36;100501.78;;;10.41;100.00
64253;BME280;50592;52.958;-7.470;2023-12-22T01:40:03;100506.38;;;10.39;100.00
64253;BME280;50592;52.958;-7.470;2023-12-22T01:42:30;100510.81;;;10.39;100.00
64253;BME280;50592;52.958;-7.470;2023-12-22T01:44:56;100503.47;;;10.33;100.00
64253;BME280;50592;52.958;-7.470;2023-12-22T01:47:22;100511.66;;;10.29;100.00
64253;BME280;50592;52.958;-7.470;2023-12-22T01:49:48;100514.31;;;10.29;100.00
64253;BME280;50592;52.958;-7.470;2023-12-22T01:52:15;100507.50;;;10.27;100.00
64253;BME280;50592;52.958;-7.470;2023-12-22T01:54:42;100521.56;;;10.17;100.00
64253;BME280;50592;52.958;-7.470;2023-12-22T01:57:08;100524.06;;;10.19;100.00
64253;BME280;50592;52.958;-7.470;2023-12-22T01:59:35;100514.59;;;10.16;100.00
64253;BME280;50592;52.958;-7.470;2023-12-22T02:02:02;100509.03;;;10.20;100.00
64253;BME280;50592;52.958;-7.470;2023-12-22T02:04:30;100529.75;;;10.24;100.00
64253;BME280;50592;52.958;-7.470;2023-12-22T02:07:01;100526.28;;;10.24;100.00
64253;BME280;50592;52.958;-7.470;2023-12-22T02:09:27;100529.63;;;10.16;100.00
64253;BME280;50592;52.958;-7.470;2023-12-22T02:11:53;100534.91;;;10.16;100.00
64253;BME280;50592;52.958;-7.470;2023-12-22T02:14:19;100529.34;;;10.19;100.00
64253;BME280;50592;52.958;-7.470;2023-12-22T02:16:56;100519.03;;;10.26;100.00
64253;BME280;50592;52.958;-7.470;2023-12-22T02:22:08;100536.28;;;10.30;100.00
64253;BME280;50592;52.958;-7.470;2023-12-22T02:24:34;100545.16;;;10.29;100.00
64253;BME280;50592;52.958;-7.470;2023-12-22T02:32:32;100534.19;;;10.34;100.00
64253;BME280;50592;52.958;-7.470;2023-12-22T02:35:03;100526.81;;;10.37;100.00
64253;BME280;50592;52.958;-7.470;2023-12-22T02:37:31;100528.22;;;10.32;100.00
64253;BME280;50592;52.958;-7.470;2023-12-22T02:39:58;100527.50;;;10.29;100.00
64253;BME280;50592;52.958;-7.470;2023-12-22T02:42:25;100519.03;;;10.26;100.00
64253;BME280;50592;52.958;-7.470;2023-12-22T02:44:57;100531.56;;;10.24;100.00
64253;BME280;50592;52.958;-7.470;2023-12-22T02:47:23;100537.28;;;10.19;100.00
64253;BME280;50592;52.958;-7.470;2023-12-22T02:49:49;100532.41;;;10.14;100.00
64253;BME280;50592;52.958;-7.470;2023-12-22T02:52:15;100546.72;;;10.12;100.00
64253;BME280;50592;52.958;-7.470;2023-12-22T02:54:41;100558.69;;;10.16;100.00
64253;BME280;50592;52.958;-7.470;2023-12-22T02:57:07;100555.06;;;10.17;100.00
64253;BME280;50592;52.958;-7.470;2023-12-22T02:59:33;100563.81;;;10.17;100.00
64253;BME280;50592;52.958;-7.470;2023-12-22T03:01:59;100548.78;;;10.18;100.00
64253;BME280;50592;52.958;-7.470;2023-12-22T03:04:25;100549.63;;;10.18;100.00
64253;BME280;50592;52.958;-7.470;2023-12-22T03:06:51;100551.28;;;10.20;100.00
64253;BME280;50592;52.958;-7.470;2023-12-22T03:09:16;100560.75;;;10.22;100.00
64253;BME280;50592;52.958;-7.470;2023-12-22T03:11:42;100537.13;;;10.21;100.00
64253;BME280;50592;52.958;-7.470;2023-12-22T03:14:09;100550.88;;;10.24;100.00
64253;BME280;50592;52.958;-7.470;2023-12-22T03:16:35;100557.13;;;10.23;100.00
64253;BME280;50592;52.958;-7.470;2023-12-22T03:19:01;100557.41;;;10.20;100.00
64253;BME280;50592;52.958;-7.470;2023-12-22T03:21:27;100554.06;;;10.18;100.00
64253;BME280;50592;52.958;-7.470;2023-12-22T03:23:53;100563.81;;;10.17;100.00
64253;BME280;50592;52.958;-7.470;2023-12-22T03:26:19;100562.97;;;10.17;100.00
64253;BME280;50592;52.958;-7.470;2023-12-22T03:28:44;100569.91;;;10.18;100.00
64253;BME280;50592;52.958;-7.470;2023-12-22T03:31:10;100565.91;;;10.14;100.00
64253;BME280;50592;52.958;-7.470;2023-12-22T03:33:36;100551.16;;;10.11;100.00
64253;BME280;50592;52.958;-7.470;2023-12-22T03:36:02;100527.25;;;10.13;100.00
64253;BME280;50592;52.958;-7.470;2023-12-22T03:38:28;100548.78;;;10.08;100.00
64253;BME280;50592;52.958;-7.470;2023-12-22T03:40:54;100549.63;;;10.09;100.00
64253;BME280;50592;52.958;-7.470;2023-12-22T03:43:19;100548.53;;;10.11;100.00
64253;BME280;50592;52.958;-7.470;2023-12-22T03:45:45;100559.19;;;10.10;100.00
64253;BME280;50592;52.958;-7.470;2023-12-22T03:48:11;100550.31;;;10.11;100.00
64253;BME280;50592;52.958;-7.470;2023-12-22T03:50:37;100554.63;;;10.12;100.00
64253;BME280;50592;52.958;-7.470;2023-12-22T03:53:03;100554.63;;;10.12;100.00
64253;BME280;50592;52.958;-7.470;2023-12-22T03:55:28;100546.00;;;10.10;100.00
64253;BME280;50592;52.958;-7.470;2023-12-22T03:57:54;100546.13;;;10.08;100.00
64253;BME280;50592;52.958;-7.470;2023-12-22T04:00:20;100550.59;;;10.08;100.00
64253;BME280;50592;52.958;-7.470;2023-12-22T04:02:46;100554.06;;;10.08;100.00
64253;BME280;50592;52.958;-7.470;2023-12-22T04:05:11;100553.81;;;10.11;100.00
64253;BME280;50592;52.958;-7.470;2023-12-22T04:07:37;100551.16;;;10.11;100.00
64253;BME280;50592;52.958;-7.470;2023-12-22T04:10:03;100545.47;;;10.06;100.00
64253;BME280;50592;52.958;-7.470;2023-12-22T04:12:29;100549.63;;;10.09;100.00
64253;BME280;50592;52.958;-7.470;2023-12-22T04:14:55;100539.06;;;10.09;100.00
64253;BME280;50592;52.958;-7.470;2023-12-22T04:17:20;100558.25;;;10.11;100.00
64253;BME280;50592;52.958;-7.470;2023-12-22T04:19:46;100552.41;;;10.07;100.00
64253;BME280;50592;52.958;-7.470;2023-12-22T04:22:12;100550.47;;;10.09;100.00
64253;BME280;50592;52.958;-7.470;2023-12-22T04:24:38;100549.63;;;10.09;100.00
64253;BME280;50592;52.958;-7.470;2023-12-22T04:27:03;100545.88;;;10.11;100.00
64253;BME280;50592;52.958;-7.470;2023-12-22T04:29:30;100543.50;;;10.08;100.00
64253;BME280;50592;52.958;-7.470;2023-12-22T04:31:55;100540.19;;;10.06;100.00
64253;BME280;50592;52.958;-7.470;2023-12-22T04:34:21;100541.97;;;10.05;100.00
64253;BME280;50592;52.958;-7.470;2023-12-22T04:36:47;100541.69;;;10.09;100.00
64253;BME280;50592;52.958;-7.470;2023-12-22T04:39:13;100536.97;;;10.02;100.00
64253;BME280;50592;52.958;-7.470;2023-12-22T04:41:38;100548.53;;;10.01;100.00
64253;BME280;50592;52.958;-7.470;2023-12-22T04:44:04;100539.75;;;10.01;100.00
64253;BME280;50592;52.958;-7.470;2023-12-22T04:46:30;100548.66;;;10.00;100.00
64253;BME280;50592;52.958;-7.470;2023-12-22T04:48:56;100548.09;;;9.96;100.00
64253;BME280;50592;52.958;-7.470;2023-12-22T04:51:23;100547.94;;;9.98;100.00
64253;BME280;50592;52.958;-7.470;2023-12-22T04:53:48;100552.38;;;9.97;100.00
64253;BME280;50592;52.958;-7.470;2023-12-22T04:56:15;100541.81;;;9.97;100.00
64253;BME280;50592;52.958;-7.470;2023-12-22T04:58:40;100560.44;;;9.96;100.00
64253;BME280;50592;52.958;-7.470;2023-12-22T05:01:06;100550.16;;;9.92;100.00
64253;BME280;50592;52.958;-7.470;2023-12-22T05:03:32;100548.94;;;9.97;100.00
64253;BME280;50592;52.958;-7.470;2023-12-22T05:05:58;100557.00;;;9.95;100.00
64253;BME280;50592;52.958;-7.470;2023-12-22T05:08:24;100553.22;;;9.98;100.00
64253;BME280;50592;52.958;-7.470;2023-12-22T05:10:49;100551.44;;;9.98;100.00
64253;BME280;50592;52.958;-7.470;2023-12-22T05:13:15;100548.78;;;9.98;100.00
64253;BME280;50592;52.958;-7.470;2023-12-22T05:15:41;100568.81;;;10.01;100.00
64253;BME280;50592;52.958;-7.470;2023-12-22T05:18:07;100562.94;;;9.97;100.00
64253;BME280;50592;52.958;-7.470;2023-12-22T05:20:33;100563.78;;;9.98;100.00
64253;BME280;50592;52.958;-7.470;2023-12-22T05:22:59;100557.94;;;9.94;100.00
64253;BME280;50592;52.958;-7.470;2023-12-22T05:25:25;100569.91;;;9.88;100.00
64253;BME280;50592;52.958;-7.470;2023-12-22T05:27:50;100563.25;;;9.84;100.00
64253;BME280;50592;52.958;-7.470;2023-12-22T05:30:17;100567.94;;;9.80;100.00
64253;BME280;50592;52.958;-7.470;2023-12-22T05:32:43;100582.09;;;9.79;100.00
64253;BME280;50592;52.958;-7.470;2023-12-22T05:35:10;100568.91;;;9.79;100.00
64253;BME280;50592;52.958;-7.470;2023-12-22T05:37:36;100566.84;;;9.83;100.00
64253;BME280;50592;52.958;-7.470;2023-12-22T05:40:02;100541.28;;;9.84;100.00
64253;BME280;50592;52.958;-7.470;2023-12-22T05:42:28;100557.81;;;9.86;100.00
64253;BME280;50592;52.958;-7.470;2023-12-22T05:44:53;100548.06;;;9.86;100.00
64253;BME280;50592;52.958;-7.470;2023-12-22T05:47:19;100569.06;;;9.88;100.00
64253;BME280;50592;52.958;-7.470;2023-12-22T05:49:45;100561.00;;;9.89;100.00
64253;BME280;50592;52.958;-7.470;2023-12-22T05:52:12;100553.50;;;9.95;100.00
64253;BME280;50592;52.958;-7.470;2023-12-22T05:54:38;100559.91;;;9.92;100.00
64253;BME280;50592;52.958;-7.470;2023-12-22T05:57:04;100549.88;;;9.96;100.00
64253;BME280;50592;52.958;-7.470;2023-12-22T05:59:32;100548.38;;;9.93;100.00
64253;BME280;50592;52.958;-7.470;2023-12-22T06:01:58;100544.75;;;9.94;100.00
64253;BME280;50592;52.958;-7.470;2023-12-22T06:04:25;100541.16;;;9.95;100.00
64253;BME280;50592;52.958;-7.470;2023-12-22T06:06:51;100534.19;;;9.94;100.00
64253;BME280;50592;52.958;-7.470;2023-12-22T06:09:17;100542.94;;;9.95;100.00
64253;BME280;50592;52.958;-7.470;2023-12-22T06:11:45;100541.00;;;9.97;100.00
64253;BME280;50592;52.958;-7.470;2023-12-22T06:14:11;100559.78;;;9.93;100.00
64253;BME280;50592;52.958;-7.470;2023-12-22T06:16:36;100555.16;;;9.96;100.00
64253;BME280;50592;52.958;-7.470;2023-12-22T06:19:02;100548.94;;;9.97;100.00
64253;BME280;50592;52.958;-7.470;2023-12-22T06:21:28;100552.25;;;9.99;100.00
64253;BME280;50592;52.958;-7.470;2023-12-22T06:23:54;100550.59;;;9.98;100.00
64253;BME280;50592;52.958;-7.470;2023-12-22T06:26:20;100559.34;;;9.98;100.00
64253;BME280;50592;52.958;-7.470;2023-12-22T06:28:46;100562.94;;;9.97;100.00
64253;BME280;50592;52.958;-7.470;2023-12-22T06:31:19;100575.59;;;10.03;100.00
64253;BME280;50592;52.958;-7.470;2023-12-22T06:33:46;100560.03;;;10.00;100.00
64253;BME280;50592;52.958;-7.470;2023-12-22T06:36:22;100550.31;;;10.01;100.00
64253;BME280;50592;52.958;-7.470;2023-12-22T06:38:49;100549.63;;;9.99;100.00
64253;BME280;50592;52.958;-7.470;2023-12-22T06:41:22;100552.97;;;10.01;100.00
64253;BME280;50592;52.958;-7.470;2023-12-22T06:43:49;100550.72;;;9.96;100.00
64253;BME280;50592;52.958;-7.470;2023-12-22T06:46:15;100562.28;;;9.95;100.00
64253;BME280;50592;52.958;-7.470;2023-12-22T06:48:42;100558.09;;;9.92;100.00
64253;BME280;50592;52.958;-7.470;2023-12-22T06:51:07;100561.56;;;9.93;100.00
64253;BME280;50592;52.958;-7.470;2023-12-22T06:53:41;100571.00;;;9.96;100.00
64253;BME280;50592;52.958;-7.470;2023-12-22T06:56:24;100568.38;;;9.96;100.00
64253;BME280;50592;52.958;-7.470;2023-12-22T06:58:52;100566.72;;;9.95;100.00
64253;BME280;50592;52.958;-7.470;2023-12-22T07:01:32;100571.84;;;9.96;100.00
64253;BME280;50592;52.958;-7.470;2023-12-22T07:03:58;100580.19;;;9.91;100.00
64253;BME280;50592;52.958;-7.470;2023-12-22T07:06:32;100580.75;;;9.95;100.00
64253;BME280;50592;52.958;-7.470;2023-12-22T07:11:41;100594.38;;;9.90;100.00
64253;BME280;50592;52.958;-7.470;2023-12-22T07:14:07;100595.47;;;9.88;100.00
64253;BME280;50592;52.958;-7.470;2023-12-22T07:16:34;100605.88;;;9.89;100.00
64253;BME280;50592;52.958;-7.470;2023-12-22T07:19:00;100596.44;;;9.87;100.00
64253;BME280;50592;52.958;-7.470;2023-12-22T07:21:26;100600.75;;;9.88;100.00
64253;BME280;50592;52.958;-7.470;2023-12-22T07:23:52;100606.16;;;9.86;100.00
64253;BME280;50592;52.958;-7.470;2023-12-22T07:26:17;100603.66;;;9.85;100.00
64253;BME280;50592;52.958;-7.470;2023-12-22T07:28:46;100609.63;;;9.87;100.00
64253;BME280;50592;52.958;-7.470;2023-12-22T07:31:12;100598.38;;;9.85;100.00
64253;BME280;50592;52.958;-7.470;2023-12-22T07:33:38;100619.63;;;9.83;100.00
64253;BME280;50592;52.958;-7.470;2023-12-22T07:36:05;100607.97;;;9.86;100.00
64253;BME280;50592;52.958;-7.470;2023-12-22T07:38:31;100606.44;;;9.83;100.00
64253;BME280;50592;52.958;-7.470;2023-12-22T07:40:57;100617.00;;;9.83;100.00
64253;BME280;50592;52.958;-7.470;2023-12-22T07:43:22;100617.84;;;9.84;100.00
64253;BME280;50592;52.958;-7.470;2023-12-22T07:45:48;100616.84;;;9.85;100.00
64253;BME280;50592;52.958;-7.470;2023-12-22T07:48:16;100628.25;;;9.85;100.00
64253;BME280;50592;52.958;-7.470;2023-12-22T07:50:42;100627.13;;;9.88;100.00
64253;BME280;50592;52.958;-7.470;2023-12-22T07:53:08;100630.06;;;9.85;100.00
64253;BME280;50592;52.958;-7.470;2023-12-22T07:55:34;100632.56;;;9.86;100.00
64253;BME280;50592;52.958;-7.470;2023-12-22T07:58:00;100630.06;;;9.85;100.00
64253;BME280;50592;52.958;-7.470;2023-12-22T08:00:26;100632.84;;;9.83;100.00
64253;BME280;50592;52.958;-7.470;2023-12-22T08:02:53;100628.13;;;9.87;100.00
64253;BME280;50592;52.958;-7.470;2023-12-22T08:05:19;100615.19;;;9.84;100.00
64253;BME280;50592;52.958;-7.470;2023-12-22T08:07:45;100630.19;;;9.83;100.00
64253;BME280;50592;52.958;-7.470;2023-12-22T08:10:11;100630.91;;;9.85;100.00
64253;BME280;50592;52.958;-7.470;2023-12-22T08:12:36;100637.03;;;9.86;100.00
64253;BME280;50592;52.958;-7.470;2023-12-22T08:15:03;100632.56;;;9.86;100.00
64253;BME280;50592;52.958;-7.470;2023-12-22T08:17:29;100636.03;;;9.87;100.00
64253;BME280;50592;52.958;-7.470;2023-12-22T08:19:55;100643.38;;;9.83;100.00
64253;BME280;50592;52.958;-7.470;2023-12-22T08:22:22;100652.28;;;9.82;100.00
64253;BME280;50592;52.958;-7.470;2023-12-22T08:24:49;100649.38;;;9.85;100.00
64253;BME280;50592;52.958;-7.470;2023-12-22T08:27:15;100654.78;;;9.84;100.00
64253;BME280;50592;52.958;-7.470;2023-12-22T08:29:40;100657.31;;;9.85;100.00
64253;BME280;50592;52.958;-7.470;2023-12-22T08:32:06;100661.59;;;9.86;100.00
64253;BME280;50592;52.958;-7.470;2023-12-22T08:34:32;100672.28;;;9.85;100.00
64253;BME280;50592;52.958;-7.470;2023-12-22T08:36:58;100661.03;;;9.83;100.00
64253;BME280;50592;52.958;-7.470;2023-12-22T08:39:24;100672.03;;;9.88;100.00
64253;BME280;50592;52.958;-7.470;2023-12-22T08:41:50;100663.56;;;9.84;100.00
64253;BME280;50592;52.958;-7.470;2023-12-22T08:44:15;100668.94;;;9.83;100.00
64253;BME280;50592;52.958;-7.470;2023-12-22T08:46:41;100669.66;;;9.85;100.00
64253;BME280;50592;52.958;-7.470;2023-12-22T08:49:07;100666.88;;;9.86;100.00
64253;BME280;50592;52.958;-7.470;2023-12-22T08:51:33;100672.16;;;9.86;100.00
64253;BME280;50592;52.958;-7.470;2023-12-22T08:54:02;100666.19;;;9.84;100.00
64253;BME280;50592;52.958;-7.470;2023-12-22T08:56:30;100678.56;;;9.84;100.00
64253;BME280;50592;52.958;-7.470;2023-12-22T08:58:55;100678.28;;;9.87;100.00
64253;BME280;50592;52.958;-7.470;2023-12-22T09:01:24;100692.34;;;9.87;100.00
64253;BME280;50592;52.958;-7.470;2023-12-22T09:03:50;100695.94;;;9.86;100.00
64253;BME280;50592;52.958;-7.470;2023-12-22T09:06:20;100707.19;;;9.88;100.00
64253;BME280;50592;52.958;-7.470;2023-12-22T09:08:46;100707.19;;;9.88;100.00
64253;BME280;50592;52.958;-7.470;2023-12-22T09:11:13;100691.75;;;9.84;100.00
64253;BME280;50592;52.958;-7.470;2023-12-22T09:13:43;100697.16;;;9.82;100.00
64253;BME280;50592;52.958;-7.470;2023-12-22T09:16:09;100699.22;;;9.78;100.00
64253;BME280;50592;52.958;-7.470;2023-12-22T09:18:36;100705.50;;;9.77;100.00
64253;BME280;50592;52.958;-7.470;2023-12-22T09:21:02;100701.03;;;9.78;100.00
64253;BME280;50592;52.958;-7.470;2023-12-22T09:23:29;100709.34;;;9.73;100.00
64253;BME280;50592;52.958;-7.470;2023-12-22T09:25:55;100710.59;;;9.69;100.00
64253;BME280;50592;52.958;-7.470;2023-12-22T09:28:20;100701.97;;;9.67;100.00
64253;BME280;50592;52.958;-7.470;2023-12-22T09:30:46;100701.97;;;9.67;100.00
64253;BME280;50592;52.958;-7.470;2023-12-22T09:33:12;100713.63;;;9.64;100.00
64253;BME280;50592;52.958;-7.470;2023-12-22T09:35:38;100703.91;;;9.65;100.00
64253;BME280;50592;52.958;-7.470;2023-12-22T09:38:10;100704.59;;;9.67;100.00
64253;BME280;50592;52.958;-7.470;2023-12-22T09:40:38;100701.41;;;9.63;100.00
64253;BME280;50592;52.958;-7.470;2023-12-22T09:43:06;100703.78;;;9.66;100.00
64253;BME280;50592;52.958;-7.470;2023-12-22T09:45:33;100704.84;;;9.64;100.00
64253;BME280;50592;52.958;-7.470;2023-12-22T09:48:03;100694.03;;;9.67;100.00
64253;BME280;50592;52.958;-7.470;2023-12-22T09:50:30;100694.31;;;9.64;100.00
64253;BME280;50592;52.958;-7.470;2023-12-22T09:52:56;100701.28;;;9.65;100.00
64253;BME280;50592;52.958;-7.470;2023-12-22T09:55:23;100692.38;;;9.66;100.00
64253;BME280;50592;52.958;-7.470;2023-12-22T09:57:49;100702.66;;;9.69;100.00
64253;BME280;50592;52.958;-7.470;2023-12-22T10:00:15;100702.94;;;9.66;100.00
64253;BME280;50592;52.958;-7.470;2023-12-22T10:02:43;100714.34;;;9.66;100.00
64253;BME280;50592;52.958;-7.470;2023-12-22T10:05:11;100705.44;;;9.67;100.00
64253;BME280;50592;52.958;-7.470;2023-12-22T10:07:39;100715.72;;;9.71;100.00
64253;BME280;50592;52.958;-7.470;2023-12-22T10:10:07;100709.47;;;9.72;100.00
64253;BME280;50592;52.958;-7.470;2023-12-22T10:12:34;100718.38;;;9.71;100.00
64253;BME280;50592;52.958;-7.470;2023-12-22T10:15:00;100714.75;;;9.72;100.00
64253;BME280;50592;52.958;-7.470;2023-12-22T10:17:27;100721.84;;;9.71;100.00
64253;BME280;50592;52.958;-7.470;2023-12-22T10:19:55;100720.16;;;9.70;100.00
64253;BME280;50592;52.958;-7.470;2023-12-22T10:22:21;100733.22;;;9.72;100.00
64253;BME280;50592;52.958;-7.470;2023-12-22T10:24:49;100739.22;;;9.74;100.00
64253;BME280;50592;52.958;-7.470;2023-12-22T10:27:20;100737.59;;;9.83;100.00
64253;BME280;50592;52.958;-7.470;2023-12-22T10:29:49;100734.00;;;9.84;100.00
64253;BME280;50592;52.958;-7.470;2023-12-22T10:32:16;100731.09;;;9.87;100.00
64253;BME280;50592;52.958;-7.470;2023-12-22T10:34:43;100725.41;;;9.91;100.00
64253;BME280;50592;52.958;-7.470;2023-12-22T10:37:10;100728.91;;;9.92;100.00
64253;BME280;50592;52.958;-7.470;2023-12-22T10:39:36;100732.47;;;9.91;100.00
64253;BME280;50592;52.958;-7.470;2023-12-22T10:42:03;100724.44;;;9.92;100.00
64253;BME280;50592;52.958;-7.470;2023-12-22T10:44:29;100732.47;;;9.91;100.00
64253;BME280;50592;52.958;-7.470;2023-12-22T10:46:56;100745.28;;;9.96;100.00
64253;BME280;50592;52.958;-7.470;2023-12-22T10:49:22;100738.78;;;10.00;100.00
64253;BME280;50592;52.958;-7.470;2023-12-22T10:51:49;100744.88;;;10.00;100.00
64253;BME280;50592;52.958;-7.470;2023-12-22T10:54:16;100746.31;;;10.04;100.00
64253;BME280;50592;52.958;-7.470;2023-12-22T10:56:42;100739.59;;;10.00;100.00
64253;BME280;50592;52.958;-7.470;2023-12-22T10:59:11;100752.16;;;10.08;100.00
64253;BME280;50592;52.958;-7.470;2023-12-22T11:01:37;100745.06;;;10.09;100.00
64253;BME280;50592;52.958;-7.470;2023-12-22T11:04:13;100760.09;;;10.18;100.00
64253;BME280;50592;52.958;-7.470;2023-12-22T11:06:42;100759.44;;;10.16;100.00
64253;BME280;50592;52.958;-7.470;2023-12-22T11:09:10;100757.88;;;10.13;100.00
64253;BME280;50592;52.958;-7.470;2023-12-22T11:11:37;100759.28;;;10.17;100.00
64253;BME280;50592;52.958;-7.470;2023-12-22T11:14:05;100755.34;;;10.12;100.00
64253;BME280;50592;52.958;-7.470;2023-12-22T11:16:33;100759.69;;;10.13;100.00
64253;BME280;50592;52.958;-7.470;2023-12-22T11:19:01;100751.63;;;10.14;100.00
64253;BME280;50592;52.958;-7.470;2023-12-22T11:21:27;100764.00;;;10.14;100.00
64253;BME280;50592;52.958;-7.470;2023-12-22T11:23:55;100759.69;;;10.13;100.00
64253;BME280;50592;52.958;-7.470;2023-12-22T11:26:22;100759.81;;;10.11;100.00
64253;BME280;50592;52.958;-7.470;2023-12-22T11:28:49;100770.50;;;10.10;100.00
64253;BME280;50592;52.958;-7.470;2023-12-22T11:31:19;100760.19;;;10.07;100.00
64253;BME280;50592;52.958;-7.470;2023-12-22T11:33:48;100756.59;;;10.08;100.00
64253;BME280;50592;52.958;-7.470;2023-12-22T11:36:15;100755.75;;;10.07;100.00
64253;BME280;50592;52.958;-7.470;2023-12-22T11:38:45;100746.31;;;10.04;100.00
64253;BME280;50592;52.958;-7.470;2023-12-22T11:41:20;100750.94;;;10.12;100.00
64253;BME280;50592;52.958;-7.470;2023-12-22T11:43:47;100741.34;;;10.11;100.00
64253;BME280;50592;52.958;-7.470;2023-12-22T11:46:16;100751.22;;;10.19;100.00
64253;BME280;50592;52.958;-7.470;2023-12-22T11:48:51;100749.56;;;10.28;100.00
64253;BME280;50592;52.958;-7.470;2023-12-22T11:51:18;100750.56;;;10.27;100.00
64253;BME280;50592;52.958;-7.470;2023-12-22T11:53:44;100744.88;;;10.32;100.00
64253;BME280;50592;52.958;-7.470;2023-12-22T11:56:11;100743.47;;;10.37;100.00
64253;BME280;50592;52.958;-7.470;2023-12-22T11:58:45;100740.06;;;10.47;100.00
64253;BME280;50592;52.958;-7.470;2023-12-22T12:01:19;100731.31;;;10.46;100.00
64253;BME280;50592;52.958;-7.470;2023-12-22T12:03:59;100731.84;;;10.50;100.00
64253;BME280;50592;52.958;-7.470;2023-12-22T12:09:00;100737.28;;;10.48;100.00
64253;BME280;50592;52.958;-7.470;2023-12-22T12:14:32;100718.34;;;10.53;100.00
64253;BME280;50592;52.958;-7.470;2023-12-22T12:17:08;100732.69;;;10.50;100.00
64253;BME280;50592;52.958;-7.470;2023-12-22T12:19:37;100727.41;;;10.50;100.00
64253;BME280;50592;52.958;-7.470;2023-12-22T12:22:03;100715.44;;;10.46;100.00
64253;BME280;50592;52.958;-7.470;2023-12-22T12:24:29;100719.75;;;10.47;100.00
64253;BME280;50592;52.958;-7.470;2023-12-22T12:26:55;100713.63;;;10.47;100.00
64253;BME280;50592;52.958;-7.470;2023-12-22T12:29:21;100712.94;;;10.54;100.00
64253;BME280;50592;52.958;-7.470;2023-12-22T12:31:47;100712.41;;;10.51;100.00
64253;BME280;50592;52.958;-7.470;2023-12-22T12:34:13;100711.56;;;10.50;100.00
64253;BME280;50592;52.958;-7.470;2023-12-22T12:36:42;100711.81;;;10.47;100.00
64253;BME280;50592;52.958;-7.470;2023-12-22T12:39:08;100698.47;;;10.49;100.00
64253;BME280;50592;52.958;-7.470;2023-12-22T12:41:39;100702.91;;;10.48;100.00
64253;BME280;50592;52.958;-7.470;2023-12-22T12:44:06;100696.81;;;10.48;100.00
64253;BME280;50592;52.958;-7.470;2023-12-22T12:46:40;100693.44;;;10.46;100.00
64253;BME280;50592;52.958;-7.470;2023-12-22T12:49:10;100687.00;;;10.38;100.00
64253;BME280;50592;52.958;-7.470;2023-12-22T12:51:43;100692.69;;;10.34;100.00
64253;BME280;50592;52.958;-7.470;2023-12-22T12:54:10;100692.69;;;10.34;100.00
64253;BME280;50592;52.958;-7.470;2023-12-22T12:56:41;100690.91;;;10.34;100.00
64253;BME280;50592;52.958;-7.470;2023-12-22T12:59:11;100692.31;;;10.28;100.00
64253;BME280;50592;52.958;-7.470;2023-12-22T13:01:38;100688.38;;;10.23;100.00
64253;BME280;50592;52.958;-7.470;2023-12-22T13:04:04;100687.00;;;10.18;100.00
64253;BME280;50592;52.958;-7.470;2023-12-22T13:06:30;100691.28;;;10.20;100.00
64253;BME280;50592;52.958;-7.470;2023-12-22T13:08:56;100693.78;;;10.21;100.00
64253;BME280;50592;52.958;-7.470;2023-12-22T13:11:23;100688.09;;;10.26;100.00
64253;BME280;50592;52.958;-7.470;2023-12-22T13:13:51;100688.38;;;10.23;100.00
64253;BME280;50592;52.958;-7.470;2023-12-22T13:16:21;100692.84;;;10.22;100.00
64253;BME280;50592;52.958;-7.470;2023-12-22T13:18:48;100678.09;;;10.20;100.00
64253;BME280;50592;52.958;-7.470;2023-12-22T13:21:14;100674.19;;;10.14;100.00
64253;BME280;50592;52.958;-7.470;2023-12-22T13:23:41;100677.69;;;10.14;100.00
64253;BME280;50592;52.958;-7.470;2023-12-22T13:26:17;100671.72;;;10.22;100.00